Time;durP1;ratioP1;P1;durP2;ratioP2;P2;SDS_P1;SDS_P2;PMS_P1;PMS_P2;Temp;Humidity;BMP_temperature;BMP_pressure;BME280_temperature;BME280_humidity;BME280_pressure;Samples;Min_cycle;Max_cycle;Signal;HPM_P1;HPM_P2
2022/09/16 00:00:47;;;;;;;1.60;1.50;;;;;;;24.70;67.89;96851.00;5120368;27;20234;-33
2022/09/16 00:03:15;;;;;;;1.60;1.50;;;;;;;24.71;68.09;96855.28;5126525;27;20198;-33
2022/09/16 00:05:51;;;;;;;1.57;1.47;;;;;;;24.70;68.01;96845.84;5128595;27;20660;-33
2022/09/16 00:08:18;;;;;;;1.77;1.67;;;;;;;24.69;68.14;96847.56;5128148;27;20201;-33
2022/09/16 00:10:45;;;;;;;1.80;1.70;;;;;;;24.71;67.59;96840.72;5125811;27;20599;-34
2022/09/16 00:13:11;;;;;;;1.30;1.30;;;;;;;24.71;68.05;96843.28;5128381;27;20550;-33
2022/09/16 00:15:45;;;;;;;1.60;1.50;;;;;;;24.72;67.80;96857.00;5128282;27;20210;-33
2022/09/16 00:18:11;;;;;;;1.63;1.53;;;;;;;24.71;68.05;96840.72;5128709;28;20198;-32
2022/09/16 00:20:45;;;;;;;1.60;1.50;;;;;;;24.70;68.01;96845.84;5121829;28;20711;-34
2022/09/16 00:23:12;;;;;;;1.50;1.40;;;;;;;24.70;67.94;96845.84;5120880;28;20198;-33
2022/09/16 00:25:39;;;;;;;1.30;1.30;;;;;;;24.69;67.75;96847.56;5128285;28;20206;-34
2022/09/16 00:28:05;;;;;;;1.60;1.50;;;;;;;24.69;67.98;96851.84;5118042;28;20261;-34
2022/09/16 00:30:32;;;;;;;1.60;1.50;;;;;;;24.68;67.75;96848.41;5123618;28;20218;-33
2022/09/16 00:32:58;;;;;;;1.60;1.50;;;;;;;24.67;68.19;96845.84;5120600;28;20555;-34
2022/09/16 00:35:37;;;;;;;1.50;1.40;;;;;;;24.69;68.15;96844.97;5128236;28;20205;-34
2022/09/16 00:38:03;;;;;;;1.40;1.30;;;;;;;24.68;68.01;96848.41;5123141;28;20206;-32
2022/09/16 00:40:30;;;;;;;1.60;1.50;;;;;;;24.69;68.10;96833.88;5128154;28;20230;-33
2022/09/16 00:42:58;;;;;;;1.50;1.40;;;;;;;24.69;67.68;96836.44;5127246;28;20582;-34
2022/09/16 00:45:30;;;;;;;1.40;1.30;;;;;;;24.70;67.68;96843.28;5127999;28;20201;-33
2022/09/16 00:47:58;;;;;;;1.33;1.30;;;;;;;24.69;68.06;96832.13;5128338;28;20195;-34
2022/09/16 00:50:47;;;;;;;1.43;1.33;;;;;;;24.70;67.66;96827.88;5109726;28;20724;-34
2022/09/16 00:53:19;;;;;;;1.60;1.50;;;;;;;24.70;67.84;96830.44;5109954;28;20209;-33
2022/09/16 00:55:46;;;;;;;1.60;1.50;;;;;;;24.69;68.27;96837.28;5092869;28;20205;-34
2022/09/16 00:58:34;;;;;;;1.47;1.37;;;;;;;24.69;67.58;96844.97;5111448;27;20209;-33
2022/09/16 01:01:01;;;;;;;1.50;1.40;;;;;;;24.70;67.74;96845.84;5101314;27;20222;-32
2022/09/16 01:03:27;;;;;;;1.40;1.30;;;;;;;24.69;67.83;96837.28;5091384;27;20313;-33
2022/09/16 01:05:54;;;;;;;1.37;1.30;;;;;;;24.68;67.41;96835.56;5096292;27;20224;-34
2022/09/16 01:08:20;;;;;;;1.47;1.37;;;;;;;24.69;67.68;96834.72;5113656;27;20206;-33
2022/09/16 01:10:47;;;;;;;1.70;1.60;;;;;;;24.69;67.68;96828.72;5131962;27;20724;-33
2022/09/16 01:13:13;;;;;;;1.50;1.40;;;;;;;24.69;67.98;96827.00;5131659;27;20202;-33
2022/09/16 01:15:43;;;;;;;1.60;1.50;;;;;;;24.68;67.45;96817.59;5113656;27;20228;-33
2022/09/16 01:18:22;;;;;;;1.50;1.40;;;;;;;24.71;67.36;96821.88;5128793;27;20190;-33
2022/09/16 01:21:16;;;;;;;1.43;1.33;;;;;;;24.68;67.62;96822.72;5132510;27;20229;-32
2022/09/16 01:24:02;;;;;;;1.50;1.40;;;;;;;24.69;67.61;96821.84;5134280;27;20202;-33
2022/09/16 01:26:51;;;;;;;1.57;1.47;;;;;;;24.70;67.95;96830.44;5134597;27;20193;-33
2022/09/16 01:29:37;;;;;;;1.60;1.50;;;;;;;24.69;67.77;96827.00;5127714;27;20225;-32
2022/09/16 01:32:19;;;;;;;1.67;1.57;;;;;;;24.70;67.41;96827.88;5118073;27;20198;-34
2022/09/16 01:35:01;;;;;;;1.23;1.20;;;;;;;24.67;67.53;96822.72;5134585;27;20206;-33
2022/09/16 01:37:41;;;;;;;1.33;1.30;;;;;;;24.63;67.51;96813.25;5111708;28;20205;-33
2022/09/16 01:40:19;;;;;;;1.50;1.40;;;;;;;24.61;67.96;96809.78;5111356;27;20217;-34
2022/09/16 01:42:51;;;;;;;1.50;1.40;;;;;;;24.68;67.50;96827.88;5099673;27;20198;-33
2022/09/16 01:45:21;;;;;;;1.60;1.50;;;;;;;24.68;67.62;96820.16;5116563;27;20197;-34
2022/09/16 01:48:07;;;;;;;1.53;1.43;;;;;;;24.67;67.61;96821.00;5113765;27;20206;-33
2022/09/16 01:50:42;;;;;;;1.37;1.30;;;;;;;24.68;67.47;96820.16;5099565;27;20218;-33
2022/09/16 01:53:31;;;;;;;1.43;1.33;;;;;;;24.60;67.75;96811.50;5115776;27;20196;-33
2022/09/16 01:56:02;;;;;;;2.60;1.30;;;;;;;24.67;67.33;96820.16;5116255;27;20568;-34
2022/09/16 01:58:53;;;;;;;1.50;1.40;;;;;;;24.66;67.75;96819.28;5099504;27;20198;-33
2022/09/16 02:01:43;;;;;;;1.50;1.30;;;;;;;24.66;67.82;96818.44;5115574;27;20218;-33
2022/09/16 02:04:16;;;;;;;1.57;1.47;;;;;;;24.66;67.69;96821.00;5115785;27;20308;-33
2022/09/16 02:06:42;;;;;;;1.60;1.50;;;;;;;24.58;67.91;96800.38;5099171;27;20233;-33
2022/09/16 02:09:14;;;;;;;6.20;1.40;;;;;;;24.66;67.62;96815.88;5098104;27;20214;-33
2022/09/16 02:11:41;;;;;;;1.50;1.40;;;;;;;24.67;67.89;96818.44;5115600;27;20194;-33
2022/09/16 02:14:14;;;;;;;1.60;1.50;;;;;;;24.67;68.00;96820.16;5090780;27;20202;-33
2022/09/16 02:16:49;;;;;;;2.40;1.50;;;;;;;24.67;67.68;96823.59;5115516;27;20198;-32
2022/09/16 02:19:25;;;;;;;1.60;1.50;;;;;;;24.67;67.76;96826.16;5095696;28;20221;-32
2022/09/16 02:21:52;;;;;;;1.53;1.43;;;;;;;24.67;67.73;96823.59;5098766;27;20194;-34
2022/09/16 02:24:19;;;;;;;2.17;1.43;;;;;;;24.68;67.64;96832.13;5098517;27;20199;-33
2022/09/16 02:26:54;;;;;;;1.80;1.70;;;;;;;24.68;67.25;96827.88;5098750;27;20201;-33
2022/09/16 02:29:22;;;;;;;1.60;1.50;;;;;;;24.68;67.80;96825.28;5098125;22;20218;-23
2022/09/16 02:31:48;;;;;;;1.40;1.30;;;;;;;24.68;67.74;96833.00;5067968;28;20195;-32
2022/09/16 02:34:25;;;;;;;1.70;1.60;;;;;;;24.68;67.47;96822.72;5065544;28;20279;-24
2022/09/16 02:36:54;;;;;;;1.50;1.40;;;;;;;24.68;67.63;96824.41;5045570;28;20208;-23
2022/09/16 02:39:25;;;;;;;1.53;1.43;;;;;;;24.68;67.46;96816.72;5041863;28;20257;-23
2022/09/16 02:41:54;;;;;;;1.50;1.40;;;;;;;24.68;67.27;96822.72;5060365;28;20574;-23
2022/09/16 02:44:20;;;;;;;1.63;1.53;;;;;;;24.64;67.27;96808.13;5091566;28;20200;-23
2022/09/16 02:47:06;;;;;;;1.70;1.60;;;;;;;24.69;67.25;96813.31;5059053;28;20207;-25
2022/09/16 02:49:48;;;;;;;1.80;1.70;;;;;;;24.52;67.22;96790.06;5069727;28;20216;-23
2022/09/16 02:52:22;;;;;;;1.80;1.70;;;;;;;24.64;67.74;96808.13;5062607;28;20196;-23
2022/09/16 02:55:21;;;;;;;1.50;1.40;;;;;;;24.68;67.82;96817.59;5047630;28;20195;-24
2022/09/16 02:57:48;;;;;;;1.80;1.70;;;;;;;24.54;67.44;96790.06;5046929;28;20219;-23
2022/09/16 03:00:15;;;;;;;1.93;1.83;;;;;;;24.69;67.76;96821.84;5057581;28;20214;-23
2022/09/16 03:02:41;;;;;;;1.70;1.60;;;;;;;24.69;67.36;96826.16;5073425;28;20360;-23
2022/09/16 03:05:11;;;;;;;1.47;1.37;;;;;;;24.68;67.47;96820.16;5063006;28;20196;-23
2022/09/16 03:07:37;;;;;;;1.70;1.60;;;;;;;24.68;67.82;96822.72;5084764;28;20197;-23
2022/09/16 03:10:04;;;;;;;1.80;1.70;;;;;;;24.69;67.41;96826.16;5070641;28;20200;-22
2022/09/16 03:12:37;;;;;;;1.70;1.60;;;;;;;24.68;67.38;96833.00;5067579;28;20206;-23
2022/09/16 03:15:30;;;;;;;1.80;1.70;;;;;;;24.69;67.63;96842.41;5078234;28;20223;-23
2022/09/16 03:17:57;;;;;;;2.00;1.90;;;;;;;24.69;67.54;96829.56;5083079;28;20216;-23
2022/09/16 03:20:26;;;;;;;1.63;1.50;;;;;;;24.69;67.32;96821.03;5085234;28;20629;-22
2022/09/16 03:23:08;;;;;;;1.80;1.70;;;;;;;24.69;67.42;96823.59;5087284;28;20701;-23
2022/09/16 03:25:38;;;;;;;1.37;1.37;;;;;;;24.68;67.11;96822.72;5077406;28;20250;-24
2022/09/16 03:28:26;;;;;;;1.60;1.50;;;;;;;24.68;67.70;96825.28;5081464;28;20224;-23
2022/09/16 03:31:10;;;;;;;1.80;1.70;;;;;;;24.67;67.30;96827.84;5081328;28;20211;-22
2022/09/16 03:34:10;;;;;;;1.80;1.70;;;;;;;24.67;67.47;96822.72;5055426;28;20203;-24
2022/09/16 03:36:40;;;;;;;1.70;1.60;;;;;;;24.61;67.68;96810.66;5087029;28;20583;-23
2022/09/16 03:39:06;;;;;;;1.80;1.70;;;;;;;24.50;67.65;96796.88;5067227;28;20228;-23
2022/09/16 03:41:33;;;;;;;1.50;1.40;;;;;;;24.60;67.63;96811.50;5044472;28;20215;-22
2022/09/16 03:44:00;;;;;;;1.80;1.70;;;;;;;24.66;67.64;96826.97;5064738;28;20207;-23
2022/09/16 03:46:29;;;;;;;1.70;1.60;;;;;;;24.65;67.47;96827.84;5083906;28;20213;-25
2022/09/16 03:48:56;;;;;;;1.60;1.50;;;;;;;24.65;67.32;96817.56;5052259;28;20231;-23
2022/09/16 03:51:23;;;;;;;1.60;1.50;;;;;;;24.60;67.20;96811.50;5085376;28;20659;-23
2022/09/16 03:53:52;;;;;;;1.80;1.70;;;;;;;24.67;67.14;96823.59;5081434;28;20200;-22
2022/09/16 03:56:21;;;;;;;1.60;1.50;;;;;;;24.65;67.72;96820.13;5077409;28;20200;-23
2022/09/16 03:58:47;;;;;;;1.60;1.50;;;;;;;24.67;67.44;96821.00;5081547;28;20228;-23
2022/09/16 04:01:14;;;;;;;1.60;1.50;;;;;;;24.67;67.64;96815.00;5076684;28;20216;-23
2022/09/16 04:03:40;;;;;;;1.57;1.47;;;;;;;24.67;67.61;96820.16;5081355;28;20202;-24
2022/09/16 04:06:08;;;;;;;1.73;1.63;;;;;;;24.66;67.48;96819.28;5087819;28;20202;-24
2022/09/16 04:08:35;;;;;;;1.90;1.80;;;;;;;24.68;67.06;96817.59;5083875;28;20219;-22
2022/09/16 04:11:04;;;;;;;1.60;1.50;;;;;;;24.67;67.20;96815.00;5076842;28;20192;-23
2022/09/16 04:13:34;;;;;;;1.70;1.60;;;;;;;24.68;67.56;96816.72;5090476;28;20234;-23
2022/09/16 04:16:01;;;;;;;1.80;1.70;;;;;;;24.64;67.06;96812.38;5079943;28;20200;-23
2022/09/16 04:18:29;;;;;;;1.77;1.67;;;;;;;24.67;67.44;96815.88;5082783;28;20215;-22
2022/09/16 04:20:57;;;;;;;1.77;1.67;;;;;;;24.68;67.26;96815.00;5082571;28;20593;-23
2022/09/16 04:23:25;;;;;;;1.80;1.70;;;;;;;24.68;67.33;96815.00;5089814;28;20203;-23
2022/09/16 04:25:59;;;;;;;1.63;1.53;;;;;;;24.68;67.47;96820.16;5082098;28;20195;-23
2022/09/16 04:28:25;;;;;;;1.60;1.50;;;;;;;24.67;67.30;96815.88;5079049;28;20223;-23
2022/09/16 04:30:52;;;;;;;1.93;1.83;;;;;;;24.67;67.33;96818.44;5088666;28;20199;-22
2022/09/16 04:33:19;;;;;;;1.90;1.80;;;;;;;24.67;67.21;96812.44;5091284;28;20203;-22
2022/09/16 04:35:45;;;;;;;1.80;1.70;;;;;;;24.67;67.42;96821.00;5086165;28;20203;-22
2022/09/16 04:38:12;;;;;;;1.90;1.80;;;;;;;24.68;67.47;96814.16;5083142;28;20220;-23
2022/09/16 04:40:38;;;;;;;1.67;1.57;;;;;;;24.68;67.00;96819.28;5094267;28;20219;-23
2022/09/16 04:43:05;;;;;;;1.67;1.57;;;;;;;24.68;67.25;96812.44;5090882;28;20724;-22
2022/09/16 04:45:31;;;;;;;1.83;1.73;;;;;;;24.68;67.61;96822.72;5090182;28;20196;-23
2022/09/16 04:47:58;;;;;;;1.83;1.73;;;;;;;24.68;67.44;96822.72;5082720;28;20600;-23
2022/09/16 04:50:24;;;;;;;1.60;1.50;;;;;;;24.69;67.44;96818.44;5093449;28;20811;-32
2022/09/16 04:52:51;;;;;;;1.90;1.80;;;;;;;24.69;67.53;96828.72;5089476;28;20200;-22
2022/09/16 04:55:18;;;;;;;1.70;1.60;;;;;;;24.58;67.02;96810.66;5071311;28;20199;-23
2022/09/16 04:57:44;;;;;;;1.80;1.70;;;;;;;24.70;67.27;96821.03;5087056;28;20219;-22
2022/09/16 05:00:11;;;;;;;1.60;1.50;;;;;;;24.68;67.02;96822.72;5090039;28;20699;-22
2022/09/16 05:02:38;;;;;;;1.80;1.70;;;;;;;24.67;67.44;96820.16;5082132;28;20206;-23
2022/09/16 05:05:04;;;;;;;1.80;1.70;;;;;;;24.67;67.16;96826.16;5079125;28;20223;-23
2022/09/16 05:07:31;;;;;;;1.60;1.50;;;;;;;24.67;67.56;96825.28;5088770;28;20642;-24
2022/09/16 05:09:57;;;;;;;1.80;1.70;;;;;;;24.66;67.32;96819.28;5079153;28;20195;-23
2022/09/16 05:12:24;;;;;;;1.80;1.70;;;;;;;24.67;67.02;96807.28;5087006;28;20196;-22
2022/09/16 05:14:51;;;;;;;1.70;1.60;;;;;;;24.68;67.14;96811.56;5078924;28;20196;-22
2022/09/16 05:17:17;;;;;;;2.00;1.90;;;;;;;24.67;67.05;96810.75;5084737;28;20203;-23
2022/09/16 05:20:04;;;;;;;1.90;1.80;;;;;;;24.68;67.17;96811.56;5087644;28;20207;-23
2022/09/16 05:22:30;;;;;;;2.03;1.90;;;;;;;24.64;67.38;96802.97;5090443;28;20632;-23
2022/09/16 05:24:57;;;;;;;1.60;1.50;;;;;;;24.59;67.29;96804.66;5090180;28;20200;-23
2022/09/16 05:27:26;;;;;;;1.93;1.77;;;;;;;24.68;67.16;96824.41;5077723;28;20694;-23
2022/09/16 05:29:53;;;;;;;1.60;1.50;;;;;;;24.68;67.27;96820.16;5090169;28;20203;-23
2022/09/16 05:32:19;;;;;;;1.90;1.80;;;;;;;24.69;67.41;96818.44;5088099;28;20192;-23
2022/09/16 05:34:46;;;;;;;1.80;1.70;;;;;;;24.69;67.02;96814.16;5088063;28;20199;-23
2022/09/16 05:37:12;;;;;;;1.87;1.73;;;;;;;24.69;66.89;96811.59;5088578;28;20197;-23
2022/09/16 05:39:39;;;;;;;1.70;1.60;;;;;;;24.69;67.37;96824.44;5086634;28;20223;-23
2022/09/16 05:42:05;;;;;;;1.67;1.57;;;;;;;24.69;67.05;96828.72;5081698;28;20220;-23
2022/09/16 05:44:32;;;;;;;1.53;1.43;;;;;;;24.69;67.37;96831.31;5084025;28;20204;-23
2022/09/16 05:46:59;;;;;;;1.80;1.70;;;;;;;24.68;67.13;96833.00;5084825;28;20203;-22
2022/09/16 05:49:25;;;;;;;1.57;1.47;;;;;;;24.69;67.19;96834.72;5092068;28;20562;-23
2022/09/16 05:51:52;;;;;;;1.70;1.60;;;;;;;24.68;66.91;96830.44;5083632;28;20200;-23
2022/09/16 05:54:19;;;;;;;1.80;1.70;;;;;;;24.69;66.94;96827.00;5089039;28;20203;-23
2022/09/16 05:56:46;;;;;;;1.70;1.60;;;;;;;24.71;67.00;96834.72;5084000;28;20211;-23
2022/09/16 05:59:12;;;;;;;1.70;1.60;;;;;;;24.70;66.85;96826.16;5088591;28;20215;-23
2022/09/16 06:01:39;;;;;;;1.80;1.70;;;;;;;24.71;67.28;96824.44;5085197;28;20219;-23
2022/09/16 06:04:06;;;;;;;1.83;1.73;;;;;;;24.71;67.39;96816.72;5081119;28;20207;-23
2022/09/16 06:06:40;;;;;;;1.70;1.60;;;;;;;24.71;66.71;96821.88;5093031;28;20204;-24
2022/09/16 06:09:09;;;;;;;1.77;1.67;;;;;;;24.70;67.01;96815.91;5082897;28;20220;-23
2022/09/16 06:11:37;;;;;;;1.70;1.60;;;;;;;24.71;67.16;96829.56;5072885;28;20207;-23
2022/09/16 06:14:04;;;;;;;1.80;1.70;;;;;;;24.70;67.09;96823.59;5073590;28;20682;-22
2022/09/16 06:16:34;;;;;;;2.00;1.80;;;;;;;24.65;67.10;96822.69;5088746;28;20562;-23
2022/09/16 06:19:02;;;;;;;1.70;1.60;;;;;;;24.60;66.82;96805.53;5073203;28;20608;-24
2022/09/16 06:21:29;;;;;;;1.70;1.60;;;;;;;24.70;66.78;96818.47;5089838;28;20224;-23
2022/09/16 06:23:56;;;;;;;1.80;1.70;;;;;;;24.60;67.25;96798.66;5081273;28;20204;-23
2022/09/16 06:26:24;;;;;;;1.80;1.70;;;;;;;24.66;66.99;96797.88;5087644;28;20573;-23
2022/09/16 06:28:51;;;;;;;1.73;1.63;;;;;;;24.70;67.10;96813.31;5082447;28;20253;-22
2022/09/16 06:31:18;;;;;;;1.60;1.50;;;;;;;24.69;67.24;96806.44;5078990;28;20655;-24
2022/09/16 06:33:44;;;;;;;1.77;1.67;;;;;;;24.69;67.26;96808.19;5091737;28;20200;-24
2022/09/16 06:36:13;;;;;;;1.60;1.50;;;;;;;24.64;67.03;96796.97;5084485;28;20199;-22
2022/09/16 06:38:39;;;;;;;1.80;1.70;;;;;;;24.66;67.16;96798.72;5062793;28;20215;-23
2022/09/16 06:41:07;;;;;;;1.73;1.63;;;;;;;24.69;67.27;96808.19;5079565;28;20216;-23
2022/09/16 06:43:34;;;;;;;1.93;1.83;;;;;;;24.69;67.19;96815.88;5085890;28;20199;-24
2022/09/16 06:46:02;;;;;;;1.67;1.57;;;;;;;24.69;67.04;96809.00;5075136;28;20200;-23
2022/09/16 06:48:32;;;;;;;1.43;1.33;;;;;;;24.66;67.01;96809.00;5071994;28;20215;-23
2022/09/16 06:51:03;;;;;;;1.73;1.63;;;;;;;24.69;67.32;96813.31;5087764;28;20203;-22
2022/09/16 06:53:30;;;;;;;1.70;1.60;;;;;;;24.69;67.27;96813.31;5065211;28;20473;-24
2022/09/16 06:56:00;;;;;;;1.67;1.57;;;;;;;24.69;66.85;96806.44;5081026;28;20203;-23
2022/09/16 06:58:30;;;;;;;1.70;1.60;;;;;;;24.69;66.90;96806.44;5081555;28;20628;-23
2022/09/16 07:00:57;;;;;;;1.70;1.60;;;;;;;24.69;67.05;96809.00;5089422;28;20697;-23
2022/09/16 07:03:24;;;;;;;1.70;1.60;;;;;;;24.65;67.14;96801.28;5085367;28;20290;-23
2022/09/16 07:05:59;;;;;;;1.70;1.60;;;;;;;24.70;66.80;96807.31;5086283;28;20199;-23
2022/09/16 07:08:25;;;;;;;1.70;1.60;;;;;;;24.70;66.89;96810.75;5067110;28;20210;-23
2022/09/16 07:11:04;;;;;;;1.97;1.87;;;;;;;24.70;66.72;96812.44;5057106;28;20219;-22
2022/09/16 07:13:31;;;;;;;2.00;1.90;;;;;;;24.70;66.78;96818.47;5084065;28;20580;-23
2022/09/16 07:16:01;;;;;;;1.80;1.70;;;;;;;24.70;67.12;96830.44;5083712;28;20207;-23
2022/09/16 07:18:38;;;;;;;1.70;1.60;;;;;;;24.70;67.10;96833.00;5079594;28;20740;-23
2022/09/16 07:21:27;;;;;;;1.63;1.53;;;;;;;24.70;66.79;96831.31;5073899;28;20212;-23
2022/09/16 07:23:54;;;;;;;2.00;1.80;;;;;;;24.70;67.02;96825.31;5080368;28;20558;-22
2022/09/16 07:26:25;;;;;;;1.80;1.70;;;;;;;24.64;66.57;96820.97;5086344;28;20202;-23
2022/09/16 07:28:52;;;;;;;2.10;1.90;;;;;;;24.70;67.02;96827.88;5081342;28;20227;-24
2022/09/16 07:31:24;;;;;;;1.87;1.77;;;;;;;24.70;66.70;96825.31;5077634;28;20227;-22
2022/09/16 07:33:51;;;;;;;1.63;1.53;;;;;;;24.71;66.67;96827.00;5089730;28;20282;-31
2022/09/16 07:36:25;;;;;;;2.23;2.10;;;;;;;24.70;66.79;96826.16;5084320;28;20223;-23
2022/09/16 07:38:51;;;;;;;1.90;1.80;;;;;;;24.71;66.77;96830.44;5087591;28;20219;-23
2022/09/16 07:41:22;;;;;;;2.00;1.90;;;;;;;24.69;66.95;96824.44;5085500;28;20212;-23
2022/09/16 07:43:49;;;;;;;1.90;1.80;;;;;;;24.71;66.62;96832.16;5071074;28;20589;-23
2022/09/16 07:46:16;;;;;;;1.73;1.63;;;;;;;24.71;66.73;96827.88;5078911;28;20208;-23
2022/09/16 07:48:44;;;;;;;2.00;1.90;;;;;;;24.58;66.74;96807.22;5076107;28;20224;-24
2022/09/16 07:51:13;;;;;;;1.87;1.77;;;;;;;24.72;67.07;96839.88;5073908;28;20283;-23
2022/09/16 07:53:39;;;;;;;2.10;2.00;;;;;;;24.70;66.70;96836.44;5083412;28;20196;-24
2022/09/16 07:56:10;;;;;;;1.60;1.50;;;;;;;24.70;66.59;96826.16;5089597;28;20192;-24
2022/09/16 07:58:37;;;;;;;1.90;1.80;;;;;;;24.71;66.98;96824.44;5082935;28;20224;-23
2022/09/16 08:01:04;;;;;;;2.00;1.90;;;;;;;24.69;67.03;96818.44;5088038;28;20223;-23
2022/09/16 08:03:31;;;;;;;2.23;2.00;;;;;;;24.68;66.89;96822.72;5083473;28;20200;-23
2022/09/16 08:06:03;;;;;;;2.00;1.90;;;;;;;24.66;66.96;96824.41;5085568;28;20581;-23
2022/09/16 08:08:30;;;;;;;1.70;1.60;;;;;;;24.69;66.93;96826.16;5077151;28;20220;-23
2022/09/16 08:10:57;;;;;;;2.07;1.90;;;;;;;24.68;66.66;96827.88;5083779;28;20244;-23
2022/09/16 08:13:24;;;;;;;2.37;2.17;;;;;;;24.69;66.70;96844.97;5084682;28;20223;-23
2022/09/16 08:15:52;;;;;;;1.80;1.70;;;;;;;24.70;67.09;96854.44;5083456;28;20574;-24
2022/09/16 08:18:19;;;;;;;2.17;2.00;;;;;;;24.66;67.06;96849.28;5082584;28;20211;-23
2022/09/16 08:20:46;;;;;;;1.73;1.63;;;;;;;24.70;66.51;96851.88;5081478;28;20200;-23
2022/09/16 08:23:13;;;;;;;1.93;1.80;;;;;;;24.70;66.60;96849.31;5088182;28;20200;-23
2022/09/16 08:25:41;;;;;;;2.30;2.10;;;;;;;24.70;66.53;96856.13;5083534;28;20207;-23
2022/09/16 08:28:12;;;;;;;2.10;2.00;;;;;;;24.70;66.97;96849.31;5096336;22;20272;-31
2022/09/16 08:30:39;;;;;;;1.90;1.80;;;;;;;24.71;66.72;96852.72;5032200;28;20213;-31
2022/09/16 08:33:06;;;;;;;1.70;1.60;;;;;;;24.70;66.59;96844.16;5028003;28;20193;-31
2022/09/16 08:35:32;;;;;;;1.90;1.80;;;;;;;24.64;67.34;96838.94;5025132;28;20206;-31
2022/09/16 08:37:59;;;;;;;2.10;2.00;;;;;;;24.71;66.84;96855.28;5030626;28;20345;-31
2022/09/16 08:40:25;;;;;;;2.20;2.00;;;;;;;24.57;66.82;96829.47;5012295;28;20209;-31
2022/09/16 08:43:09;;;;;;;1.83;1.73;;;;;;;24.71;66.73;96858.72;4995055;28;20225;-31
2022/09/16 08:45:43;;;;;;;1.73;1.63;;;;;;;24.70;67.03;96862.16;4994808;28;20363;-31
2022/09/16 08:48:26;;;;;;;2.10;2.00;;;;;;;24.70;66.80;96862.16;4988288;28;20198;-31
2022/09/16 08:50:54;;;;;;;2.10;2.00;;;;;;;24.63;67.02;96844.91;5012083;28;20288;-31
2022/09/16 08:53:37;;;;;;;2.00;1.90;;;;;;;24.71;66.68;96860.41;4979500;28;20201;-31
2022/09/16 08:56:06;;;;;;;1.90;1.80;;;;;;;24.71;66.68;96866.44;5012741;28;20199;-31
2022/09/16 08:58:41;;;;;;;1.80;1.70;;;;;;;24.68;66.86;96852.69;4994906;28;20226;-31
2022/09/16 09:01:19;;;;;;;2.07;1.93;;;;;;;24.70;66.68;96851.00;4995014;28;20576;-31
2022/09/16 09:03:46;;;;;;;1.83;1.73;;;;;;;24.71;66.78;96863.84;4964309;28;20226;-31
2022/09/16 09:06:29;;;;;;;1.90;1.80;;;;;;;24.72;66.98;96869.88;4995216;28;20505;-31
2022/09/16 09:09:22;;;;;;;2.03;1.83;;;;;;;24.70;67.05;96862.16;5012682;28;20233;-31
2022/09/16 09:12:18;;;;;;;2.10;2.00;;;;;;;24.71;66.70;96858.72;5010434;28;20202;-31
2022/09/16 09:14:52;;;;;;;1.97;1.77;;;;;;;24.71;66.96;96869.00;5007302;28;20203;-31
2022/09/16 09:17:53;;;;;;;2.17;1.97;;;;;;;24.64;66.52;96853.50;4995118;28;20218;-31
2022/09/16 09:20:35;;;;;;;1.80;1.70;;;;;;;24.71;66.70;96858.72;4984546;28;20202;-31
2022/09/16 09:23:20;;;;;;;2.00;1.90;;;;;;;24.71;66.45;96857.84;4998298;28;20218;-31
2022/09/16 09:26:14;;;;;;;2.00;1.90;;;;;;;24.71;66.91;96868.13;5016048;28;20579;-31
2022/09/16 09:28:50;;;;;;;1.77;1.67;;;;;;;24.70;66.58;96856.13;5012952;28;20249;-31
2022/09/16 09:31:19;;;;;;;1.83;1.73;;;;;;;24.70;66.71;96853.56;5016136;28;20198;-31
2022/09/16 09:34:11;;;;;;;1.83;1.73;;;;;;;24.69;66.93;96857.00;5015757;28;20206;-31
2022/09/16 09:36:47;;;;;;;1.90;1.80;;;;;;;24.69;66.96;96857.00;5000696;28;20206;-31
2022/09/16 09:39:40;;;;;;;1.80;1.70;;;;;;;24.68;66.65;96850.13;5014423;28;20296;-31
2022/09/16 09:42:28;;;;;;;2.00;1.90;;;;;;;24.67;66.56;96850.97;4982952;28;20221;-31
2022/09/16 09:45:28;;;;;;;1.97;1.87;;;;;;;24.68;66.82;96844.97;4990152;28;20681;-31
2022/09/16 09:48:16;;;;;;;2.00;1.90;;;;;;;24.68;66.88;96853.56;5007192;28;20587;-31
2022/09/16 09:50:52;;;;;;;1.90;1.80;;;;;;;24.62;66.93;96832.06;4997545;28;20191;-31
2022/09/16 09:53:34;;;;;;;1.83;1.73;;;;;;;24.69;66.68;96844.97;4982421;28;20673;-31
2022/09/16 09:56:10;;;;;;;2.20;2.00;;;;;;;24.69;67.04;96836.44;4981815;28;20202;-31
2022/09/16 09:58:59;;;;;;;2.07;1.87;;;;;;;24.69;66.94;96836.44;5015660;28;20217;-31
2022/09/16 10:01:26;;;;;;;1.80;1.70;;;;;;;24.69;66.57;96837.28;4999459;28;20751;-31
2022/09/16 10:03:56;;;;;;;1.90;1.80;;;;;;;24.69;66.40;96834.72;5015716;28;20225;-31
2022/09/16 10:06:32;;;;;;;1.60;1.50;;;;;;;24.67;66.90;96830.41;4982832;28;20198;-31
2022/09/16 10:08:58;;;;;;;1.90;1.80;;;;;;;24.56;66.84;96804.63;5007069;28;20221;-31
2022/09/16 10:11:30;;;;;;;1.90;1.80;;;;;;;24.70;66.80;96822.72;4997822;28;20204;-31
2022/09/16 10:13:58;;;;;;;1.90;1.80;;;;;;;24.65;66.52;96821.84;4997381;28;20668;-31
2022/09/16 10:16:33;;;;;;;1.90;1.80;;;;;;;24.64;66.71;96822.66;4998041;28;20198;-31
2022/09/16 10:19:23;;;;;;;1.97;1.87;;;;;;;24.69;66.54;96837.28;4997798;28;20222;-31
2022/09/16 10:21:53;;;;;;;1.90;1.80;;;;;;;24.69;66.73;96832.13;4996505;28;20226;-31
2022/09/16 10:24:25;;;;;;;1.80;1.70;;;;;;;24.70;66.52;96825.31;5015729;28;20198;-31
2022/09/16 10:26:52;;;;;;;1.87;1.77;;;;;;;24.70;66.90;96820.16;5012586;28;20204;-31
2022/09/16 10:29:18;;;;;;;1.93;1.83;;;;;;;24.69;66.29;96819.28;5004896;28;20248;-31
2022/09/16 10:31:45;;;;;;;1.80;1.70;;;;;;;24.60;66.72;96808.09;5014655;28;20715;-31
2022/09/16 10:34:28;;;;;;;1.67;1.57;;;;;;;24.70;66.46;96826.16;4993364;28;20203;-31
2022/09/16 10:37:18;;;;;;;1.77;1.67;;;;;;;24.71;66.54;96827.00;5012075;28;20217;-31
2022/09/16 10:39:53;;;;;;;1.87;1.77;;;;;;;24.60;66.66;96814.06;5014412;28;20245;-31
2022/09/16 10:42:21;;;;;;;1.80;1.70;;;;;;;24.64;66.81;96820.97;4978217;28;20237;-31
2022/09/16 10:44:50;;;;;;;1.87;1.67;;;;;;;24.65;66.29;96820.13;4997295;28;20205;-31
2022/09/16 10:47:22;;;;;;;1.80;1.70;;;;;;;24.52;66.49;96795.19;4997470;28;20218;-31
2022/09/16 10:49:50;;;;;;;1.87;1.77;;;;;;;24.63;66.62;96810.69;4981562;28;20309;-31
2022/09/16 10:52:20;;;;;;;1.90;1.80;;;;;;;24.70;66.49;96823.59;4980889;28;20198;-31
2022/09/16 10:54:47;;;;;;;1.77;1.67;;;;;;;24.71;66.43;96825.31;5006875;28;20293;-31
2022/09/16 10:57:43;;;;;;;1.63;1.53;;;;;;;24.71;66.22;96827.88;4996615;28;20260;-31
2022/09/16 11:00:12;;;;;;;2.47;2.00;;;;;;;24.70;66.54;96833.88;5005830;28;20214;-31
2022/09/16 11:02:57;;;;;;;1.70;1.60;;;;;;;24.70;66.44;96846.72;5013997;28;20222;-31
2022/09/16 11:05:43;;;;;;;1.90;1.80;;;;;;;24.70;66.46;96851.00;5013839;28;20194;-31
2022/09/16 11:08:20;;;;;;;1.70;1.60;;;;;;;24.57;66.40;96832.03;5014165;28;20200;-31
2022/09/16 11:10:55;;;;;;;1.80;1.70;;;;;;;24.69;66.79;96833.88;5005503;28;20210;-31
2022/09/16 11:13:25;;;;;;;1.87;1.77;;;;;;;24.69;66.62;96833.88;4999660;28;20202;-31
2022/09/16 11:16:24;;;;;;;1.93;1.80;;;;;;;24.69;66.40;96849.28;5013754;28;20202;-31
2022/09/16 11:19:10;;;;;;;1.83;1.73;;;;;;;24.70;66.81;96861.28;4987833;28;20246;-31
2022/09/16 11:21:54;;;;;;;1.90;1.80;;;;;;;24.69;66.58;96857.84;5010757;28;20202;-31
2022/09/16 11:24:42;;;;;;;1.97;1.70;;;;;;;24.70;66.37;96858.69;4992349;28;20199;-31
2022/09/16 11:27:11;;;;;;;1.90;1.80;;;;;;;24.70;66.32;96853.56;4996782;28;20205;-31
2022/09/16 11:29:41;;;;;;;1.80;1.70;;;;;;;24.70;66.48;96851.88;5013801;28;20226;-31
2022/09/16 11:32:10;;;;;;;1.90;1.80;;;;;;;24.71;66.45;96853.56;5014396;28;20194;-31
2022/09/16 11:35:16;;;;;;;1.80;1.70;;;;;;;24.67;66.89;96846.72;5013670;28;20576;-31
2022/09/16 11:37:58;;;;;;;1.67;1.57;;;;;;;24.64;66.36;96843.22;5013791;28;20587;-31
2022/09/16 11:40:24;;;;;;;1.80;1.70;;;;;;;24.70;66.81;96856.13;4996222;28;20698;-31
2022/09/16 11:43:05;;;;;;;1.80;1.70;;;;;;;24.70;66.31;96854.44;5012939;28;20225;-31
2022/09/16 11:45:46;;;;;;;2.00;1.90;;;;;;;24.70;66.40;96864.72;4995745;28;20202;-31
2022/09/16 11:48:18;;;;;;;1.90;1.80;;;;;;;24.71;66.67;96863.84;5006750;28;20218;-31
2022/09/16 11:51:06;;;;;;;1.90;1.80;;;;;;;24.71;66.70;96855.28;4995467;28;20434;-31
2022/09/16 11:54:05;;;;;;;1.90;1.80;;;;;;;24.71;66.77;96843.28;5013921;28;20206;-31
2022/09/16 11:56:46;;;;;;;1.90;1.80;;;;;;;24.70;66.25;96851.00;4969849;28;20213;-31
2022/09/16 11:59:18;;;;;;;1.80;1.70;;;;;;;24.72;66.60;96851.88;4980167;28;20233;-31